createdAt,value
2017-04-18T00:00:19.397Z,37.97
2017-04-18T00:01:18.375Z,41.87
2017-04-18T00:02:17.331Z,47.07
2017-04-18T00:03:16.307Z,42.25
2017-04-18T00:04:15.300Z,34.92
2017-04-18T00:05:14.283Z,35.62
2017-04-18T00:06:13.227Z,34.62
2017-04-18T00:07:12.384Z,37.27
2017-04-18T00:08:11.397Z,40.35
2017-04-18T00:09:10.383Z,36.63
2017-04-18T00:10:09.338Z,41.50
2017-04-18T00:11:08.322Z,37.15
2017-04-18T00:12:07.335Z,34.20
2017-04-18T00:13:06.390Z,37.15
2017-04-18T00:14:05.412Z,44.33
2017-04-18T00:15:04.440Z,45.95
2017-04-18T00:16:03.820Z,44.27
2017-04-18T00:17:02.817Z,41.25
2017-04-18T00:18:01.847Z,42.07
2017-04-18T00:19:00.995Z,40.97
2017-04-18T00:20:00.028Z,46.53
2017-04-18T00:20:59.041Z,42.00
2017-04-18T00:21:57.990Z,42.53
2017-04-18T00:22:57.944Z,45.15
2017-04-18T00:23:56.911Z,41.62
2017-04-18T00:24:55.927Z,41.15
2017-04-18T00:25:54.951Z,48.97
2017-04-18T00:26:53.954Z,40.73
2017-04-18T00:27:52.908Z,49.72
2017-04-18T00:28:51.871Z,44.87
2017-04-18T00:29:50.899Z,49.63
2017-04-18T00:30:49.936Z,42.12
2017-04-18T00:31:48.907Z,42.77
2017-04-18T00:32:47.940Z,41.45
2017-04-18T00:33:46.940Z,37.23
2017-04-18T00:34:45.916Z,45.12
2017-04-18T00:35:44.839Z,47.05
2017-04-18T00:36:43.847Z,45.95
2017-04-18T00:37:42.796Z,39.48
2017-04-18T00:38:41.750Z,41.15
2017-04-18T00:39:40.764Z,41.88
2017-04-18T00:40:39.743Z,37.97
2017-04-18T00:41:39.075Z,44.42
2017-04-18T00:42:38.052Z,37.53
2017-04-18T00:43:37.083Z,36.88
2017-04-18T00:44:36.083Z,39.77
2017-04-18T00:45:35.104Z,33.18
2017-04-18T00:46:34.112Z,33.05
2017-04-18T00:47:33.119Z,36.05
2017-04-18T00:48:32.103Z,30.72
2017-04-18T00:49:31.151Z,34.85
2017-04-18T00:50:30.131Z,32.23
2017-04-18T00:51:29.103Z,26.65
2017-04-18T00:52:28.056Z,26.53
2017-04-18T00:53:27.388Z,26.10
2017-04-18T00:54:26.381Z,28.65
2017-04-18T00:55:25.371Z,31.82
2017-04-18T00:56:24.355Z,24.67
2017-04-18T00:57:22.947Z,21.18
2017-04-18T00:58:21.931Z,30.22
2017-04-18T00:59:20.848Z,22.65
2017-04-18T01:00:19.971Z,20.80
2017-04-18T01:01:19.006Z,26.68
2017-04-18T01:02:18.076Z,29.13
2017-04-18T01:03:17.032Z,19.82
2017-04-18T01:04:15.992Z,24.00
2017-04-18T01:05:15.384Z,22.57
2017-04-18T01:06:15.245Z,25.35
2017-04-18T01:07:14.933Z,22.58
2017-04-18T01:08:13.903Z,25.48
2017-04-18T01:09:12.899Z,28.27
2017-04-18T01:10:11.904Z,22.55
2017-04-18T01:11:10.864Z,23.95
2017-04-18T01:12:09.911Z,29.30
2017-04-18T01:13:08.990Z,26.05
2017-04-18T01:14:07.885Z,19.50
2017-04-18T01:15:06.940Z,32.33
2017-04-18T01:16:05.972Z,24.60
2017-04-18T01:17:04.967Z,30.87
2017-04-18T01:18:04.010Z,17.28
2017-04-18T01:19:03.014Z,34.22
2017-04-18T01:20:01.592Z,21.80
2017-04-18T01:21:00.211Z,22.23
2017-04-18T01:21:59.315Z,29.80
2017-04-18T01:22:59.507Z,20.65
2017-04-18T01:23:58.547Z,23.63
2017-04-18T01:24:57.527Z,32.20
2017-04-18T01:25:56.545Z,21.73
2017-04-18T01:26:55.558Z,19.67
2017-04-18T01:27:54.584Z,24.72
2017-04-18T01:28:53.524Z,21.25
2017-04-18T01:29:52.607Z,15.22
2017-04-18T01:30:51.599Z,16.67
2017-04-18T01:31:50.582Z,24.28
2017-04-18T01:32:49.539Z,19.82
2017-04-18T01:33:48.503Z,26.33
2017-04-18T01:34:47.051Z,23.60
2017-04-18T01:35:46.164Z,27.35
2017-04-18T01:36:45.167Z,28.77
2017-04-18T01:37:44.082Z,27.47
2017-04-18T01:38:43.038Z,28.17
2017-04-18T01:39:42.043Z,24.65
2017-04-18T01:40:46.420Z,25.18
2017-04-18T01:41:50.905Z,28.08
2017-04-18T01:42:55.259Z,25.25
2017-04-18T01:43:59.858Z,26.82
2017-04-18T01:45:04.223Z,22.30
2017-04-18T01:46:08.704Z,24.32
2017-04-18T01:47:07.688Z,28.72
2017-04-18T01:48:06.624Z,28.07
2017-04-18T01:49:05.644Z,29.52
2017-04-18T01:50:04.634Z,25.23
2017-04-18T01:51:03.599Z,24.55
2017-04-18T01:52:02.643Z,24.27
2017-04-18T01:53:01.635Z,25.88
2017-04-18T01:54:00.598Z,26.40
2017-04-18T01:54:59.623Z,29.20
2017-04-18T01:55:58.552Z,23.88
2017-04-18T01:56:57.488Z,31.23
2017-04-18T01:57:56.508Z,31.55
2017-04-18T01:58:55.519Z,23.85
2017-04-18T01:59:54.524Z,25.52
2017-04-18T02:00:53.499Z,24.73
2017-04-18T02:01:52.579Z,25.28
2017-04-18T02:02:51.543Z,25.90
2017-04-18T02:03:50.136Z,20.83
2017-04-18T02:04:49.151Z,28.43
2017-04-18T02:05:48.152Z,22.12
2017-04-18T02:06:47.147Z,31.68
2017-04-18T02:07:46.102Z,29.27
2017-04-18T02:08:45.033Z,22.93
2017-04-18T02:09:44.031Z,28.40
2017-04-18T02:10:42.998Z,27.22
2017-04-18T02:11:41.958Z,20.10
2017-04-18T02:12:40.969Z,28.82
2017-04-18T02:13:39.961Z,28.42
2017-04-18T02:14:38.951Z,24.80
2017-04-18T02:15:37.879Z,24.40
2017-04-18T02:16:36.915Z,28.78
2017-04-18T02:17:35.867Z,29.37
2017-04-18T02:18:34.819Z,28.95
2017-04-18T02:19:33.783Z,25.62
2017-04-18T02:20:32.739Z,27.15
2017-04-18T02:21:31.730Z,26.27
2017-04-18T02:22:30.699Z,24.93
2017-04-18T02:23:29.658Z,24.13
2017-04-18T02:24:28.695Z,22.80
2017-04-18T02:25:27.707Z,22.32
2017-04-18T02:26:26.748Z,21.52
2017-04-18T02:27:25.751Z,21.17
2017-04-18T02:28:24.684Z,22.03
2017-04-18T02:29:24.019Z,22.47
2017-04-18T02:30:22.603Z,30.95
2017-04-18T02:31:21.636Z,21.83
2017-04-18T02:32:20.610Z,24.62
2017-04-18T02:33:19.260Z,22.78
2017-04-18T02:34:18.257Z,25.47
2017-04-18T02:35:17.259Z,21.55
2017-04-18T02:36:16.242Z,22.88
2017-04-18T02:37:15.296Z,21.82
2017-04-18T02:38:14.280Z,21.53
2017-04-18T02:39:13.355Z,20.63
2017-04-18T02:40:12.365Z,20.37
2017-04-18T02:41:10.955Z,20.98
2017-04-18T02:42:10.260Z,18.20
2017-04-18T02:43:09.528Z,22.77
2017-04-18T02:44:08.495Z,21.43
2017-04-18T02:45:07.531Z,15.82
2017-04-18T02:46:06.123Z,29.63
2017-04-18T02:47:05.014Z,22.83
2017-04-18T02:48:04.133Z,34.70
2017-04-18T02:49:02.735Z,25.68
2017-04-18T02:50:01.675Z,24.47
2017-04-18T02:51:00.623Z,24.98
2017-04-18T02:51:59.573Z,17.98
2017-04-18T02:52:58.539Z,20.88
2017-04-18T02:53:57.519Z,28.07
2017-04-18T02:54:56.488Z,22.37
2017-04-18T02:55:55.443Z,23.50
2017-04-18T02:56:54.459Z,19.47
2017-04-18T02:57:53.452Z,20.60
2017-04-18T02:58:52.389Z,22.30
2017-04-18T02:59:51.411Z,19.12
2017-04-18T03:00:50.383Z,20.25
2017-04-18T03:01:49.352Z,27.32
2017-04-18T03:02:48.338Z,18.72
2017-04-18T03:03:47.279Z,20.85
2017-04-18T03:04:46.248Z,22.85
2017-04-18T03:05:45.575Z,22.92
2017-04-18T03:06:45.281Z,20.50
2017-04-18T03:07:44.295Z,27.03
2017-04-18T03:08:43.287Z,23.37
2017-04-18T03:09:42.247Z,23.73
2017-04-18T03:10:41.279Z,17.72
2017-04-18T03:11:40.255Z,21.00
2017-04-18T03:12:39.234Z,21.15
2017-04-18T03:13:38.268Z,20.05
2017-04-18T03:14:36.872Z,19.38
2017-04-18T03:15:35.834Z,20.57
2017-04-18T03:16:35.384Z,20.70
2017-04-18T03:17:34.738Z,15.75
2017-04-18T03:18:34.255Z,22.75
2017-04-18T03:19:33.870Z,26.68
2017-04-18T03:20:33.419Z,16.67
2017-04-18T03:21:32.406Z,20.42
2017-04-18T03:22:31.359Z,21.13
2017-04-18T03:23:29.883Z,22.55
2017-04-18T03:24:28.884Z,24.28
2017-04-18T03:25:28.227Z,22.27
2017-04-18T03:26:27.192Z,20.57
2017-04-18T03:27:26.215Z,25.50
2017-04-18T03:28:25.179Z,35.57
2017-04-18T03:29:24.170Z,29.32
2017-04-18T03:30:23.111Z,22.67
2017-04-18T03:31:22.077Z,24.35
2017-04-18T03:32:21.143Z,18.00
2017-04-18T03:33:20.154Z,26.75
2017-04-18T03:34:19.102Z,25.40
2017-04-18T03:35:18.024Z,31.32
2017-04-18T03:36:16.960Z,20.10
2017-04-18T03:37:15.976Z,21.08
2017-04-18T03:38:14.978Z,25.30
2017-04-18T03:39:13.930Z,26.90
2017-04-18T03:40:12.922Z,24.73
2017-04-18T03:41:12.287Z,19.88
2017-04-18T03:42:11.245Z,18.43
2017-04-18T03:43:10.280Z,18.45
2017-04-18T03:44:09.372Z,18.97
2017-04-18T03:45:08.352Z,19.92
2017-04-18T03:46:07.357Z,19.10
2017-04-18T03:47:06.343Z,18.95
2017-04-18T03:48:05.302Z,19.80
2017-04-18T03:49:04.263Z,17.77
2017-04-18T03:50:03.214Z,18.32
2017-04-18T03:51:02.223Z,20.72
2017-04-18T03:52:01.157Z,18.05
2017-04-18T03:52:59.740Z,20.00
2017-04-18T03:53:58.825Z,20.50
2017-04-18T03:54:57.779Z,15.48
2017-04-18T03:55:56.811Z,14.88
2017-04-18T03:56:55.836Z,14.53
2017-04-18T03:57:54.826Z,18.20
2017-04-18T03:58:54.168Z,16.48
2017-04-18T03:59:53.168Z,16.20
2017-04-18T04:00:52.086Z,22.27
2017-04-18T04:01:51.079Z,13.60
2017-04-18T04:02:50.185Z,16.13
2017-04-18T04:03:49.094Z,17.23
2017-04-18T04:04:48.052Z,18.43
2017-04-18T04:05:47.036Z,15.78
2017-04-18T04:06:46.014Z,14.97
2017-04-18T04:07:44.988Z,10.82
2017-04-18T04:08:44.052Z,15.83
2017-04-18T04:09:43.380Z,16.42
2017-04-18T04:10:42.313Z,13.50
2017-04-18T04:11:41.282Z,14.92
2017-04-18T04:12:40.229Z,15.15
2017-04-18T04:13:39.242Z,13.60
2017-04-18T04:14:38.213Z,15.22
2017-04-18T04:15:37.147Z,13.22
2017-04-18T04:16:39.724Z,17.90
2017-04-18T04:17:38.691Z,12.82
2017-04-18T04:18:37.631Z,14.23
2017-04-18T04:19:36.591Z,16.62
2017-04-18T04:20:35.669Z,14.25
2017-04-18T04:21:34.642Z,13.38
2017-04-18T04:22:33.584Z,14.58
2017-04-18T04:23:32.572Z,16.88
2017-04-18T04:24:31.513Z,20.85
2017-04-18T04:25:30.494Z,19.12
2017-04-18T04:26:29.402Z,14.60
2017-04-18T04:27:28.370Z,22.65
2017-04-18T04:28:28.088Z,12.88
2017-04-18T04:29:26.949Z,15.28
2017-04-18T04:30:26.008Z,12.80
2017-04-18T04:31:24.931Z,17.42
2017-04-18T04:32:23.881Z,13.50
2017-04-18T04:33:22.896Z,14.58
2017-04-18T04:34:21.860Z,17.55
2017-04-18T04:35:20.805Z,17.25
2017-04-18T04:36:19.762Z,17.05
2017-04-18T04:37:18.747Z,15.75
2017-04-18T04:38:17.684Z,17.63
2017-04-18T04:39:16.222Z,14.97
2017-04-18T04:40:15.140Z,23.23
2017-04-18T04:41:14.079Z,17.95
2017-04-18T04:42:13.000Z,18.62
2017-04-18T04:43:11.991Z,14.05
2017-04-18T04:44:10.933Z,21.77
2017-04-18T04:45:09.887Z,14.53
2017-04-18T04:46:08.830Z,14.35
2017-04-18T04:47:07.742Z,20.77
2017-04-18T04:48:06.738Z,15.25
2017-04-18T04:49:05.703Z,18.60
2017-04-18T04:50:04.664Z,15.17
2017-04-18T04:51:03.596Z,16.80
2017-04-18T04:52:02.599Z,14.92
2017-04-18T04:53:01.547Z,18.07
2017-04-18T04:54:00.490Z,15.13
2017-04-18T04:54:59.456Z,23.27
2017-04-18T04:55:58.422Z,18.33
2017-04-18T04:56:57.380Z,20.52
2017-04-18T04:57:56.350Z,20.82
2017-04-18T04:58:55.323Z,20.35
2017-04-18T04:59:54.319Z,22.23
2017-04-18T05:00:53.779Z,24.62
2017-04-18T05:01:52.738Z,33.58
2017-04-18T05:02:51.719Z,26.03
2017-04-18T05:03:50.785Z,23.50
2017-04-18T05:04:49.740Z,20.55
2017-04-18T05:05:48.771Z,27.28
2017-04-18T05:06:47.804Z,20.92
2017-04-18T05:07:46.775Z,24.82
2017-04-18T05:08:45.803Z,24.85
2017-04-18T05:09:44.739Z,30.40
2017-04-18T05:10:43.799Z,30.25
2017-04-18T05:11:42.806Z,24.55
2017-04-18T05:12:41.852Z,32.07
2017-04-18T05:13:40.819Z,27.85
2017-04-18T05:14:39.914Z,25.05
2017-04-18T05:15:38.862Z,22.42
2017-04-18T05:16:37.418Z,25.47
2017-04-18T05:17:36.400Z,28.37
2017-04-18T05:18:35.419Z,27.42
2017-04-18T05:19:34.505Z,30.35
2017-04-18T05:20:33.718Z,26.40
2017-04-18T05:21:32.279Z,32.30
2017-04-18T05:22:31.282Z,22.45
2017-04-18T05:23:30.512Z,27.37
2017-04-18T05:24:29.520Z,29.58
2017-04-18T05:25:28.448Z,30.00
2017-04-18T05:26:27.793Z,30.87
2017-04-18T05:27:26.782Z,30.02
2017-04-18T05:28:25.774Z,25.55
2017-04-18T05:29:24.710Z,22.80
2017-04-18T05:30:23.682Z,29.52
2017-04-18T05:31:22.655Z,22.42
2017-04-18T05:32:21.546Z,24.90
2017-04-18T05:33:20.520Z,20.70
2017-04-18T05:34:19.468Z,31.35
2017-04-18T05:35:18.451Z,23.43
2017-04-18T05:36:17.467Z,26.28
2017-04-18T05:37:16.439Z,27.92
2017-04-18T05:38:15.382Z,25.95
2017-04-18T05:39:14.690Z,28.42
2017-04-18T05:40:13.634Z,28.23
2017-04-18T05:41:12.640Z,26.90
2017-04-18T05:42:11.660Z,24.77
2017-04-18T05:43:10.570Z,20.53
2017-04-18T05:44:09.131Z,22.38
2017-04-18T05:45:08.111Z,27.98
2017-04-18T05:46:07.424Z,29.50
2017-04-18T05:47:06.363Z,19.85
2017-04-18T05:48:05.311Z,32.60
2017-04-18T05:49:03.899Z,24.88
2017-04-18T05:50:03.590Z,24.10
2017-04-18T05:51:02.134Z,17.97
2017-04-18T05:52:01.071Z,21.53
2017-04-18T05:53:00.083Z,31.92
2017-04-18T05:53:58.680Z,32.45
2017-04-18T05:54:57.682Z,27.13
2017-04-18T05:55:56.607Z,20.65
2017-04-18T05:56:55.224Z,23.20
2017-04-18T05:57:54.191Z,19.10
2017-04-18T05:58:53.135Z,20.80
2017-04-18T05:59:52.106Z,17.83
2017-04-18T06:00:51.070Z,22.37
2017-04-18T06:01:50.004Z,15.82
2017-04-18T06:02:48.971Z,22.83
2017-04-18T06:03:47.887Z,21.65
2017-04-18T06:04:46.869Z,27.88
2017-04-18T06:05:46.346Z,22.97
2017-04-18T06:06:45.298Z,18.38
2017-04-18T06:07:44.266Z,19.53
2017-04-18T06:08:43.202Z,23.47
2017-04-18T06:09:42.116Z,21.23
2017-04-18T06:10:41.066Z,22.98
2017-04-18T06:11:39.983Z,24.68
2017-04-18T06:12:38.959Z,19.75
2017-04-18T06:13:37.896Z,22.33
2017-04-18T06:14:36.823Z,19.12
2017-04-18T06:15:35.748Z,16.60
2017-04-18T06:16:34.703Z,17.47
2017-04-18T06:17:33.686Z,21.82
2017-04-18T06:18:32.297Z,16.37
2017-04-18T06:19:31.289Z,23.02
2017-04-18T06:20:30.379Z,23.87
2017-04-18T06:21:28.985Z,22.88
2017-04-18T06:22:27.948Z,20.93
2017-04-18T06:23:26.992Z,25.83
2017-04-18T06:24:26.012Z,23.50
2017-04-18T06:25:24.995Z,20.73
2017-04-18T06:26:24.330Z,18.35
2017-04-18T06:27:23.270Z,23.05
2017-04-18T06:28:21.883Z,21.07
2017-04-18T06:29:20.907Z,23.78
2017-04-18T06:30:19.992Z,18.13
2017-04-18T06:31:19.040Z,19.57
2017-04-18T06:32:17.659Z,25.25
2017-04-18T06:33:16.727Z,18.28
2017-04-18T06:34:15.815Z,28.13
2017-04-18T06:35:14.759Z,22.12
2017-04-18T06:36:13.780Z,22.12
2017-04-18T06:37:12.729Z,22.50
2017-04-18T06:38:11.679Z,25.13
2017-04-18T06:39:10.667Z,25.10
2017-04-18T06:40:09.642Z,25.42
2017-04-18T06:41:08.615Z,26.57
2017-04-18T06:42:07.135Z,28.67
2017-04-18T06:43:06.062Z,22.33
2017-04-18T06:44:05.031Z,26.18
2017-04-18T06:45:03.999Z,22.62
2017-04-18T06:46:02.983Z,33.98
2017-04-18T06:47:02.015Z,24.95
2017-04-18T06:48:00.974Z,25.68
2017-04-18T06:48:59.912Z,27.80
2017-04-18T06:49:58.860Z,22.05
2017-04-18T06:50:58.179Z,31.82
2017-04-18T06:51:57.137Z,29.43
2017-04-18T06:52:56.145Z,26.00
2017-04-18T06:53:55.078Z,32.15
2017-04-18T06:54:54.089Z,32.35
2017-04-18T06:55:52.995Z,32.28
2017-04-18T06:56:52.043Z,37.05
2017-04-18T06:57:51.044Z,27.77
2017-04-18T06:58:49.990Z,37.13
2017-04-18T06:59:48.934Z,30.68
2017-04-18T07:00:47.916Z,30.78
2017-04-18T07:01:46.927Z,31.17
2017-04-18T07:02:45.967Z,31.75
2017-04-18T07:03:45.017Z,34.35
2017-04-18T07:04:44.032Z,34.47
2017-04-18T07:05:42.979Z,24.42
2017-04-18T07:06:41.971Z,36.70
2017-04-18T07:07:40.960Z,33.75
2017-04-18T07:08:39.559Z,32.13
2017-04-18T07:09:38.495Z,36.33
2017-04-18T07:10:37.597Z,34.60
2017-04-18T07:11:36.535Z,32.97
2017-04-18T07:12:35.472Z,37.85
2017-04-18T07:13:34.446Z,33.05
2017-04-18T07:14:33.387Z,31.70
2017-04-18T07:15:32.362Z,36.43
2017-04-18T07:16:31.398Z,33.28
2017-04-18T07:17:30.403Z,39.98
2017-04-18T07:18:29.372Z,35.40
2017-04-18T07:19:28.359Z,36.92
2017-04-18T07:20:27.332Z,37.33
2017-04-18T07:21:26.293Z,36.05
2017-04-18T07:22:25.681Z,40.17
2017-04-18T07:23:24.680Z,34.52
2017-04-18T07:24:23.663Z,49.27
2017-04-18T07:25:22.647Z,39.35
2017-04-18T07:26:21.591Z,40.52
2017-04-18T07:27:20.592Z,41.13
2017-04-18T07:28:19.661Z,44.42
2017-04-18T07:29:18.638Z,44.82
2017-04-18T07:30:17.581Z,42.08
2017-04-18T07:31:16.604Z,39.95
2017-04-18T07:32:15.575Z,46.03
2017-04-18T07:33:14.552Z,39.73
2017-04-18T07:34:13.595Z,33.77
2017-04-18T07:35:12.279Z,32.05
2017-04-18T07:36:11.196Z,41.65
2017-04-18T07:37:10.212Z,35.27
2017-04-18T07:38:08.820Z,34.67
2017-04-18T07:39:07.755Z,42.30
2017-04-18T07:40:06.751Z,28.48
2017-04-18T07:41:05.297Z,30.50
2017-04-18T07:42:04.356Z,36.87
2017-04-18T07:43:03.302Z,28.42
2017-04-18T07:44:01.879Z,35.20
2017-04-18T07:45:00.829Z,34.32
2017-04-18T07:45:59.837Z,29.50
2017-04-18T07:46:58.850Z,29.08
2017-04-18T07:47:57.811Z,37.33
2017-04-18T07:48:56.795Z,29.88
2017-04-18T07:49:55.999Z,31.67
2017-04-18T07:50:55.054Z,29.33
2017-04-18T07:51:54.031Z,31.28
2017-04-18T07:52:53.036Z,30.32
2017-04-18T07:53:52.168Z,37.72
2017-04-18T07:54:51.180Z,30.02
2017-04-18T07:55:50.152Z,32.07
2017-04-18T07:56:49.147Z,31.22
2017-04-18T07:57:48.135Z,27.80
2017-04-18T07:58:47.181Z,27.40
2017-04-18T07:59:46.180Z,33.75
2017-04-18T08:00:45.503Z,23.00
2017-04-18T08:01:44.519Z,25.62
2017-04-18T08:02:43.452Z,28.70
2017-04-18T08:03:42.456Z,24.78
2017-04-18T08:04:41.470Z,25.80
2017-04-18T08:05:40.995Z,24.42
2017-04-18T08:06:40.148Z,25.57
2017-04-18T08:07:39.302Z,24.25
2017-04-18T08:08:38.253Z,21.53
2017-04-18T08:09:37.228Z,18.42
2017-04-18T08:10:36.258Z,26.32
2017-04-18T08:11:35.204Z,17.17
2017-04-18T08:12:34.215Z,24.90
2017-04-18T08:13:33.194Z,19.30
2017-04-18T08:14:32.214Z,22.48
2017-04-18T08:15:31.220Z,21.43
2017-04-18T08:16:30.196Z,22.02
2017-04-18T08:17:29.176Z,20.12
2017-04-18T08:18:28.168Z,20.83
2017-04-18T08:19:27.143Z,24.10
2017-04-18T08:20:26.136Z,23.80
2017-04-18T08:21:25.115Z,17.78
2017-04-18T08:22:24.061Z,25.62
2017-04-18T08:23:23.106Z,17.13
2017-04-18T08:24:22.069Z,19.60
2017-04-18T08:25:21.051Z,19.05
2017-04-18T08:26:20.004Z,21.17
2017-04-18T08:27:18.562Z,24.40
2017-04-18T08:28:17.716Z,33.48
2017-04-18T08:29:16.704Z,22.93
2017-04-18T08:30:15.642Z,20.98
2017-04-18T08:31:14.642Z,24.87
2017-04-18T08:32:13.628Z,23.12
2017-04-18T08:33:12.586Z,28.32
2017-04-18T08:34:11.567Z,23.68
2017-04-18T08:35:10.548Z,26.53
2017-04-18T08:36:09.563Z,20.73
2017-04-18T08:37:08.496Z,21.45
2017-04-18T08:38:07.454Z,22.40
2017-04-18T08:39:06.139Z,17.82
2017-04-18T08:40:05.118Z,23.05
2017-04-18T08:41:04.100Z,21.08
2017-04-18T08:42:03.071Z,19.72
2017-04-18T08:43:02.420Z,19.57
2017-04-18T08:44:01.051Z,17.42
2017-04-18T08:44:59.977Z,20.97
2017-04-18T08:45:58.978Z,21.90
2017-04-18T08:46:58.002Z,18.97
2017-04-18T08:47:57.023Z,14.87
2017-04-18T08:48:56.057Z,19.97
2017-04-18T08:49:55.446Z,19.05
2017-04-18T08:50:54.435Z,16.22
2017-04-18T08:51:53.399Z,18.40
2017-04-18T08:52:52.411Z,21.53
2017-04-18T08:53:51.382Z,16.07
2017-04-18T08:54:49.950Z,19.87
2017-04-18T08:55:48.993Z,20.65
2017-04-18T08:56:47.995Z,21.87
2017-04-18T08:57:46.994Z,17.08
2017-04-18T08:58:46.060Z,17.23
2017-04-18T08:59:45.006Z,20.08
2017-04-18T09:00:44.040Z,17.67
2017-04-18T09:01:43.081Z,18.57
2017-04-18T09:02:41.756Z,17.62
2017-04-18T09:03:40.751Z,18.33
2017-04-18T09:04:39.746Z,17.00
2017-04-18T09:05:38.708Z,17.58
2017-04-18T09:06:37.722Z,17.65
2017-04-18T09:07:36.677Z,20.67
2017-04-18T09:08:35.665Z,15.32
2017-04-18T09:09:34.683Z,23.38
2017-04-18T09:10:33.704Z,23.65
2017-04-18T09:11:32.702Z,20.85
2017-04-18T09:12:31.686Z,18.65
2017-04-18T09:13:30.607Z,24.07
2017-04-18T09:14:29.631Z,19.28
2017-04-18T09:15:28.226Z,22.92
2017-04-18T09:16:27.180Z,20.65
2017-04-18T09:17:26.154Z,21.17
2017-04-18T09:18:24.715Z,23.62
2017-04-18T09:19:23.822Z,23.27
2017-04-18T09:20:22.855Z,22.77
2017-04-18T09:21:21.816Z,23.83
2017-04-18T09:22:20.783Z,22.70
2017-04-18T09:23:19.827Z,33.23
2017-04-18T09:24:18.761Z,23.07
2017-04-18T09:25:17.788Z,24.70
2017-04-18T09:26:16.772Z,28.10
2017-04-18T09:27:15.735Z,23.22
2017-04-18T09:28:14.681Z,29.95
2017-04-18T09:29:13.694Z,21.97
2017-04-18T09:30:12.646Z,23.70
2017-04-18T09:31:11.603Z,27.00
2017-04-18T09:32:11.019Z,27.75
2017-04-18T09:33:10.003Z,18.50
2017-04-18T09:34:09.019Z,27.13
2017-04-18T09:35:07.993Z,24.48
2017-04-18T09:36:07.013Z,28.52
2017-04-18T09:37:06.073Z,22.37
2017-04-18T09:38:05.096Z,22.93
2017-04-18T09:39:04.239Z,22.72
2017-04-18T09:40:03.260Z,25.98
2017-04-18T09:41:02.272Z,22.72
2017-04-18T09:42:01.294Z,24.18
2017-04-18T09:43:00.216Z,21.58
2017-04-18T09:43:59.246Z,21.63
2017-04-18T09:44:58.241Z,21.52
2017-04-18T09:45:57.280Z,21.47
2017-04-18T09:46:56.260Z,25.40
2017-04-18T09:47:55.253Z,23.45
2017-04-18T09:48:54.223Z,24.82
2017-04-18T09:49:53.192Z,16.40
2017-04-18T09:50:52.203Z,18.32
2017-04-18T09:51:51.211Z,13.95
2017-04-18T09:52:50.204Z,17.63
2017-04-18T09:53:49.170Z,17.77
2017-04-18T09:54:48.146Z,14.58
2017-04-18T09:55:47.128Z,20.40
2017-04-18T09:56:46.142Z,17.72
2017-04-18T09:57:45.167Z,18.37
2017-04-18T09:58:44.200Z,16.53
2017-04-18T09:59:43.188Z,14.93
2017-04-18T10:00:42.150Z,13.23
2017-04-18T10:01:41.219Z,17.55
2017-04-18T10:02:40.255Z,14.90
2017-04-18T10:03:39.259Z,12.80
2017-04-18T10:04:38.323Z,14.67
2017-04-18T10:05:37.311Z,13.42
2017-04-18T10:06:36.296Z,14.00
2017-04-18T10:07:35.235Z,12.13
2017-04-18T10:08:34.209Z,12.10
2017-04-18T10:09:33.267Z,10.55
2017-04-18T10:10:32.371Z,11.33
2017-04-18T10:11:31.323Z,15.00
2017-04-18T10:12:29.915Z,13.52
2017-04-18T10:13:28.928Z,10.57
2017-04-18T10:14:27.881Z,12.13
2017-04-18T10:15:26.907Z,9.50
2017-04-18T10:16:26.215Z,7.28
2017-04-18T10:17:25.187Z,9.95
2017-04-18T10:18:24.155Z,5.92
2017-04-18T10:19:23.160Z,9.25
2017-04-18T10:20:22.155Z,8.98
2017-04-18T10:21:21.188Z,7.55
2017-04-18T10:22:20.164Z,7.25
2017-04-18T10:23:19.211Z,7.92
2017-04-18T10:24:17.846Z,6.73
2017-04-18T10:25:17.023Z,7.03
2017-04-18T10:26:15.971Z,8.27
2017-04-18T10:27:14.703Z,8.43
2017-04-18T10:28:14.111Z,8.55
2017-04-18T10:29:13.475Z,8.20
2017-04-18T10:30:12.497Z,9.18
2017-04-18T10:31:11.081Z,9.40
2017-04-18T10:32:09.932Z,5.98
2017-04-18T10:33:08.952Z,5.65
2017-04-18T10:34:08.016Z,5.85
2017-04-18T10:35:07.031Z,5.52
2017-04-18T10:36:05.752Z,9.87
2017-04-18T10:37:04.722Z,15.15
2017-04-18T10:38:03.777Z,9.70
2017-04-18T10:39:02.819Z,9.98
2017-04-18T10:40:01.872Z,8.05
2017-04-18T10:41:00.828Z,7.90
2017-04-18T10:41:59.847Z,6.03
2017-04-18T10:42:58.786Z,5.85
2017-04-18T10:43:57.797Z,8.73
2017-04-18T10:44:56.841Z,7.27
2017-04-18T10:45:55.775Z,7.28
2017-04-18T10:46:54.876Z,7.62
2017-04-18T10:47:54.292Z,6.78
2017-04-18T10:48:53.277Z,7.45
2017-04-18T10:49:52.257Z,8.82
2017-04-18T10:50:51.297Z,5.97
2017-04-18T10:51:50.287Z,8.30
2017-04-18T10:52:49.279Z,8.58
2017-04-18T10:53:48.320Z,8.58
2017-04-18T10:54:47.343Z,9.43
2017-04-18T10:55:46.357Z,14.27
2017-04-18T10:56:45.344Z,10.07
2017-04-18T10:57:44.382Z,11.28
2017-04-18T10:58:44.127Z,11.02
2017-04-18T10:59:43.439Z,19.63
2017-04-18T11:00:42.437Z,13.30
2017-04-18T11:01:41.510Z,10.32
2017-04-18T11:02:40.484Z,8.55
2017-04-18T11:03:39.528Z,7.60
2017-04-18T11:04:38.515Z,11.68
2017-04-18T11:05:37.632Z,11.07
2017-04-18T11:06:36.735Z,6.87
2017-04-18T11:07:35.760Z,8.32
2017-04-18T11:08:34.795Z,7.30
2017-04-18T11:09:33.845Z,9.18
2017-04-18T11:10:32.919Z,7.28
2017-04-18T11:11:31.972Z,6.50
2017-04-18T11:12:31.745Z,10.15
2017-04-18T11:13:30.709Z,7.02
2017-04-18T11:14:29.660Z,10.93
2017-04-18T11:15:28.767Z,10.57
2017-04-18T11:16:27.758Z,10.48
2017-04-18T11:17:26.718Z,14.43
2017-04-18T11:18:25.934Z,9.98
2017-04-18T11:19:24.943Z,9.10
2017-04-18T11:20:23.966Z,9.05
2017-04-18T11:21:22.988Z,9.60
2017-04-18T11:22:22.372Z,12.38
2017-04-18T11:23:21.359Z,8.03
2017-04-18T11:24:20.336Z,9.02
2017-04-18T11:25:19.339Z,9.67
2017-04-18T11:26:18.303Z,9.82
2017-04-18T11:27:17.322Z,12.78
2017-04-18T11:28:16.343Z,9.08
2017-04-18T11:29:15.400Z,6.38
2017-04-18T11:30:14.415Z,8.08
2017-04-18T11:31:13.403Z,6.10
2017-04-18T11:32:12.481Z,9.82
2017-04-18T11:33:11.555Z,8.22
2017-04-18T11:34:10.567Z,11.33
2017-04-18T11:35:09.602Z,14.22
2017-04-18T11:36:08.214Z,12.13
2017-04-18T11:37:07.200Z,10.38
2017-04-18T11:38:06.204Z,8.72
2017-04-18T11:39:06.028Z,11.43
2017-04-18T11:40:05.036Z,11.62
2017-04-18T11:41:04.079Z,10.35
2017-04-18T11:42:03.161Z,13.27
2017-04-18T11:43:02.159Z,17.33
2017-04-18T11:44:01.204Z,17.02
2017-04-18T11:45:00.199Z,18.58
2017-04-18T11:45:59.224Z,18.25
2017-04-18T11:46:58.175Z,17.18
2017-04-18T11:47:57.225Z,17.43
2017-04-18T11:48:56.236Z,23.03
2017-04-18T11:49:55.207Z,22.42
2017-04-18T11:50:54.248Z,26.25
2017-04-18T11:51:53.204Z,16.23
2017-04-18T11:52:52.227Z,18.37
2017-04-18T11:53:51.259Z,21.00
2017-04-18T11:54:50.252Z,15.57
2017-04-18T11:55:49.248Z,14.27
2017-04-18T11:56:48.259Z,10.88
2017-04-18T11:57:47.255Z,9.90
2017-04-18T11:58:46.288Z,9.58
2017-04-18T11:59:45.395Z,12.62
2017-04-18T12:00:44.398Z,10.63
2017-04-18T12:01:43.492Z,10.28
2017-04-18T12:02:42.484Z,8.92
2017-04-18T12:03:41.486Z,9.78
2017-04-18T12:04:40.422Z,11.83
2017-04-18T12:05:39.423Z,6.22
2017-04-18T12:06:38.388Z,6.90
2017-04-18T12:07:37.412Z,5.32
2017-04-18T12:08:36.357Z,6.15
2017-04-18T12:09:35.391Z,8.60
2017-04-18T12:10:34.396Z,11.80
2017-04-18T12:11:33.435Z,13.53
2017-04-18T12:12:32.468Z,11.38
2017-04-18T12:13:31.417Z,13.47
2017-04-18T12:14:30.428Z,7.42
2017-04-18T12:15:29.415Z,7.63
2017-04-18T12:16:28.345Z,6.18
2017-04-18T12:17:27.360Z,8.27
2017-04-18T12:18:26.371Z,11.42
2017-04-18T12:19:25.396Z,11.10
2017-04-18T12:20:24.404Z,12.85
2017-04-18T12:21:23.406Z,7.42
2017-04-18T12:22:22.343Z,10.87
2017-04-18T12:23:21.343Z,14.38
2017-04-18T12:24:20.339Z,10.78
2017-04-18T12:25:19.367Z,10.10
2017-04-18T12:26:18.379Z,14.35
2017-04-18T12:27:17.297Z,10.62
2017-04-18T12:28:16.307Z,13.30
2017-04-18T12:29:15.225Z,12.38
2017-04-18T12:30:14.234Z,11.07
2017-04-18T12:31:13.216Z,11.60
2017-04-18T12:32:12.560Z,13.45
2017-04-18T12:33:11.503Z,13.05
2017-04-18T12:34:10.939Z,14.80
2017-04-18T12:35:09.925Z,11.02
2017-04-18T12:36:08.856Z,9.63
2017-04-18T12:37:07.828Z,12.77
2017-04-18T12:38:06.884Z,12.13
2017-04-18T12:39:06.559Z,9.53
2017-04-18T12:40:05.520Z,11.40
2017-04-18T12:41:04.552Z,10.67
2017-04-18T12:42:03.837Z,11.20
2017-04-18T12:43:02.878Z,12.85